createdAt,value
2019-03-31T00:00:33.585Z,7.13
2019-03-31T00:03:02.958Z,7.38
2019-03-31T00:05:32.141Z,7.52
2019-03-31T00:08:01.523Z,7.26
2019-03-31T00:10:30.828Z,7.54
2019-03-31T00:13:00.026Z,6.78
2019-03-31T00:15:29.147Z,7.54
2019-03-31T00:17:58.467Z,7.03
2019-03-31T00:20:27.570Z,6.73
2019-03-31T00:22:56.784Z,6.68
2019-03-31T00:25:25.974Z,6.71
2019-03-31T00:27:55.766Z,6.64
2019-03-31T00:30:25.363Z,6.88
2019-03-31T00:32:54.728Z,6.72
2019-03-31T00:35:23.967Z,6.60
2019-03-31T00:37:53.244Z,6.59
2019-03-31T00:40:22.375Z,6.43
2019-03-31T00:42:51.587Z,6.74
2019-03-31T00:45:20.722Z,6.66
2019-03-31T00:47:49.917Z,6.40
2019-03-31T00:50:19.183Z,6.22
2019-03-31T00:52:48.320Z,6.11
2019-03-31T00:55:17.514Z,6.20
2019-03-31T00:57:46.839Z,6.22
2019-03-31T01:00:38.161Z,6.05
2019-03-31T01:03:07.715Z,5.94
2019-03-31T01:05:39.753Z,6.00
2019-03-31T01:08:08.975Z,6.15
2019-03-31T01:10:38.685Z,6.38
2019-03-31T01:13:08.286Z,6.49
2019-03-31T01:15:38.161Z,6.66
2019-03-31T01:18:07.960Z,6.46
2019-03-31T01:20:37.322Z,6.68
2019-03-31T01:23:06.829Z,6.77
2019-03-31T01:25:36.028Z,6.49
2019-03-31T01:28:05.415Z,6.52
2019-03-31T01:30:34.832Z,6.52
2019-03-31T01:33:04.527Z,6.37
2019-03-31T01:35:33.743Z,6.27
2019-03-31T01:38:03.063Z,6.61
2019-03-31T01:40:32.372Z,6.52
2019-03-31T01:43:01.670Z,6.30
2019-03-31T01:45:30.760Z,6.35
2019-03-31T01:47:59.965Z,6.12
2019-03-31T01:50:30.266Z,6.09
2019-03-31T01:52:59.473Z,6.17
2019-03-31T01:55:28.591Z,6.56
2019-03-31T01:57:57.878Z,6.75
2019-03-31T02:00:37.520Z,6.77
2019-03-31T02:03:06.827Z,6.75
2019-03-31T02:05:36.010Z,6.61
2019-03-31T02:08:05.372Z,6.86
2019-03-31T02:10:34.575Z,6.73
2019-03-31T02:13:03.891Z,6.44
2019-03-31T02:15:33.134Z,6.93
2019-03-31T02:18:02.351Z,6.63
2019-03-31T02:20:31.556Z,6.74
2019-03-31T02:23:00.643Z,6.42
2019-03-31T02:25:29.904Z,6.88
2019-03-31T02:27:58.999Z,6.79
2019-03-31T02:30:28.206Z,6.76
2019-03-31T02:32:57.440Z,6.63
2019-03-31T02:35:26.656Z,6.37
2019-03-31T02:37:56.335Z,6.51
2019-03-31T02:40:25.572Z,6.60
2019-03-31T02:42:54.834Z,6.35
2019-03-31T02:45:23.938Z,6.42
2019-03-31T02:47:53.261Z,6.47
2019-03-31T02:50:44.866Z,6.67
2019-03-31T02:53:15.160Z,6.49
2019-03-31T02:55:44.586Z,6.52
2019-03-31T02:58:14.465Z,6.74
2019-03-31T03:00:44.413Z,6.76
2019-03-31T03:03:20.051Z,6.44
2019-03-31T03:05:50.041Z,6.45
2019-03-31T03:08:20.367Z,6.55
2019-03-31T03:11:10.400Z,6.34
2019-03-31T03:17:12.124Z,7.07
2019-03-31T03:19:42.942Z,7.77
2019-03-31T03:22:11.905Z,7.17
2019-03-31T03:24:40.913Z,7.14
2019-03-31T03:27:10.117Z,7.16
2019-03-31T03:29:39.306Z,7.04
2019-03-31T03:32:08.617Z,7.31
2019-03-31T03:34:38.046Z,6.94
2019-03-31T03:37:07.131Z,6.71
2019-03-31T03:39:36.607Z,6.83
2019-03-31T03:42:05.813Z,6.61
2019-03-31T03:44:35.115Z,6.69
2019-03-31T03:47:04.324Z,6.64
2019-03-31T03:49:33.568Z,6.70
2019-03-31T03:52:02.882Z,6.50
2019-03-31T03:54:32.180Z,5.95
2019-03-31T03:57:01.472Z,6.80
2019-03-31T03:59:30.743Z,6.92
2019-03-31T04:01:59.962Z,6.83
2019-03-31T04:04:29.162Z,6.45
2019-03-31T04:06:58.374Z,6.68
2019-03-31T04:09:27.561Z,6.78
2019-03-31T04:11:56.810Z,6.71
2019-03-31T04:14:25.853Z,6.11
2019-03-31T04:16:54.969Z,6.18
2019-03-31T04:19:24.165Z,6.16
2019-03-31T04:21:53.471Z,6.27
2019-03-31T04:24:22.779Z,6.40
2019-03-31T04:26:51.936Z,6.60
2019-03-31T04:29:21.163Z,6.58
2019-03-31T04:31:50.423Z,6.48
2019-03-31T04:34:19.615Z,6.06
2019-03-31T04:36:48.818Z,6.20
2019-03-31T04:39:17.826Z,5.96
2019-03-31T04:41:47.020Z,6.23
2019-03-31T04:44:16.165Z,6.06
2019-03-31T04:46:45.263Z,6.50
2019-03-31T04:49:14.413Z,6.86
2019-03-31T04:51:43.520Z,6.62
2019-03-31T04:54:12.734Z,6.85
2019-03-31T04:56:41.872Z,6.84
2019-03-31T04:59:10.996Z,6.87
2019-03-31T05:01:40.120Z,6.99
2019-03-31T05:04:09.295Z,6.87
2019-03-31T05:06:38.595Z,6.85
2019-03-31T05:09:07.842Z,7.04
2019-03-31T05:11:36.961Z,6.63
2019-03-31T05:14:06.148Z,6.68
2019-03-31T05:16:35.381Z,6.63
2019-03-31T05:19:04.587Z,7.11
2019-03-31T05:21:33.591Z,7.17
2019-03-31T05:24:02.706Z,7.31
2019-03-31T05:26:31.892Z,7.70
2019-03-31T05:29:01.104Z,7.84
2019-03-31T05:31:30.693Z,7.95
2019-03-31T05:33:59.859Z,7.91
2019-03-31T05:36:29.109Z,7.85
2019-03-31T05:38:58.277Z,8.08
2019-03-31T05:41:27.421Z,8.31
2019-03-31T05:44:05.500Z,8.29
2019-03-31T05:46:27.791Z,8.06
2019-03-31T05:48:57.011Z,8.23
2019-03-31T05:51:26.367Z,8.41
2019-03-31T05:53:55.752Z,8.73
2019-03-31T05:56:24.999Z,8.78
2019-03-31T05:58:54.269Z,8.64
2019-03-31T06:01:23.645Z,9.04
2019-03-31T06:03:52.783Z,8.93
2019-03-31T06:06:21.887Z,8.98
2019-03-31T06:08:51.092Z,8.94
2019-03-31T06:11:20.197Z,9.01
2019-03-31T06:13:49.319Z,9.36
2019-03-31T06:16:18.434Z,9.34
2019-03-31T06:18:47.710Z,9.30
2019-03-31T06:21:16.965Z,9.35
2019-03-31T06:23:46.166Z,9.64
2019-03-31T06:26:15.185Z,9.41
2019-03-31T06:28:44.355Z,9.24
2019-03-31T06:31:13.483Z,9.29
2019-03-31T06:33:42.679Z,9.35
2019-03-31T06:36:11.770Z,9.30
2019-03-31T06:38:40.908Z,9.55
2019-03-31T06:41:09.982Z,9.44
2019-03-31T06:43:39.075Z,9.46
2019-03-31T06:46:08.274Z,9.60
2019-03-31T06:48:37.482Z,9.74
2019-03-31T06:51:06.786Z,9.67
2019-03-31T06:53:35.897Z,9.83
2019-03-31T06:56:05.007Z,9.97
2019-03-31T06:58:34.206Z,9.96
2019-03-31T07:01:03.437Z,9.95
2019-03-31T07:03:32.770Z,9.93
2019-03-31T07:06:01.993Z,10.07
2019-03-31T07:08:31.206Z,10.01
2019-03-31T07:11:00.292Z,9.90
2019-03-31T07:13:29.400Z,10.15
2019-03-31T07:15:58.431Z,10.18
2019-03-31T07:18:27.539Z,10.17
2019-03-31T07:20:56.814Z,10.30
2019-03-31T07:23:25.948Z,10.29
2019-03-31T07:25:55.081Z,10.38
2019-03-31T07:28:24.366Z,10.46
2019-03-31T07:30:53.616Z,10.59
2019-03-31T07:33:22.769Z,10.58
2019-03-31T07:35:52.038Z,10.73
2019-03-31T07:38:21.279Z,10.83
2019-03-31T07:40:50.468Z,10.82
2019-03-31T07:43:19.864Z,10.89
2019-03-31T07:45:49.063Z,10.95
2019-03-31T07:48:18.266Z,10.90
2019-03-31T07:50:47.461Z,10.97
2019-03-31T07:53:16.699Z,11.09
2019-03-31T07:55:45.877Z,11.18
2019-03-31T07:58:14.982Z,11.29
2019-03-31T08:00:44.103Z,11.20
2019-03-31T08:03:13.326Z,11.27
2019-03-31T08:05:42.424Z,11.39
2019-03-31T08:08:11.543Z,11.52
2019-03-31T08:10:40.754Z,11.63
2019-03-31T08:13:10.026Z,11.57
2019-03-31T08:15:39.199Z,11.56
2019-03-31T08:18:08.456Z,11.59
2019-03-31T08:20:37.681Z,11.78
2019-03-31T08:23:06.808Z,11.66
2019-03-31T08:25:35.898Z,11.79
2019-03-31T08:28:05.018Z,11.84
2019-03-31T08:30:34.136Z,12.01
2019-03-31T08:33:03.656Z,12.09
2019-03-31T08:35:46.284Z,12.31
2019-03-31T08:38:04.021Z,12.04
2019-03-31T08:40:33.530Z,12.25
2019-03-31T08:43:02.602Z,12.32
2019-03-31T08:45:31.915Z,12.21
2019-03-31T08:48:01.192Z,12.27
2019-03-31T08:50:30.378Z,12.43
2019-03-31T08:52:59.604Z,12.49
2019-03-31T08:55:29.122Z,12.63
2019-03-31T08:57:58.257Z,12.59
2019-03-31T09:00:46.151Z,12.61
2019-03-31T09:03:15.450Z,12.85
2019-03-31T09:05:44.555Z,12.90
2019-03-31T09:08:13.647Z,13.04
2019-03-31T09:10:42.747Z,13.11
2019-03-31T09:13:12.055Z,13.05
2019-03-31T09:15:41.181Z,13.02
2019-03-31T09:18:10.272Z,13.07
2019-03-31T09:20:39.365Z,13.17
2019-03-31T09:23:08.565Z,13.33
2019-03-31T09:25:37.672Z,13.49
2019-03-31T09:28:06.980Z,13.45
2019-03-31T09:30:36.125Z,13.55
2019-03-31T09:33:05.299Z,13.57
2019-03-31T09:35:34.317Z,13.77
2019-03-31T09:38:03.415Z,13.91
2019-03-31T09:40:32.576Z,14.03
2019-03-31T09:43:01.677Z,14.00
2019-03-31T09:45:30.967Z,14.13
2019-03-31T09:48:00.282Z,14.18
2019-03-31T09:50:29.359Z,14.37
2019-03-31T09:52:58.667Z,14.46
2019-03-31T09:55:27.878Z,14.54
2019-03-31T09:57:56.990Z,14.58
2019-03-31T10:00:45.205Z,14.65
2019-03-31T10:03:14.810Z,14.63
2019-03-31T10:05:47.775Z,14.51
2019-03-31T10:08:15.446Z,14.76
2019-03-31T10:10:44.544Z,14.85
2019-03-31T10:13:13.637Z,14.96
2019-03-31T10:15:42.745Z,15.05
2019-03-31T10:18:11.964Z,15.00
2019-03-31T10:20:41.040Z,15.40
2019-03-31T10:23:10.128Z,15.29
2019-03-31T10:25:39.210Z,15.28
2019-03-31T10:28:08.328Z,15.57
2019-03-31T10:30:37.730Z,15.43
2019-03-31T10:33:07.252Z,15.36
2019-03-31T10:35:36.517Z,15.39
2019-03-31T10:38:06.818Z,15.57
2019-03-31T10:40:35.916Z,15.70
2019-03-31T10:43:05.162Z,15.48
2019-03-31T10:45:34.373Z,15.62
2019-03-31T10:48:03.657Z,15.45
2019-03-31T10:50:32.654Z,15.74
2019-03-31T10:53:01.762Z,15.97
2019-03-31T10:55:30.998Z,15.78
2019-03-31T10:58:00.208Z,16.06
2019-03-31T11:00:34.083Z,15.92
2019-03-31T11:03:04.840Z,16.03
2019-03-31T11:05:34.091Z,16.18
2019-03-31T11:08:03.702Z,16.04
2019-03-31T11:10:32.911Z,16.17
2019-03-31T11:13:02.160Z,16.14
2019-03-31T11:15:31.481Z,16.33
2019-03-31T11:18:00.647Z,16.31
2019-03-31T11:20:30.002Z,16.18
2019-03-31T11:23:05.107Z,15.93
2019-03-31T11:25:34.317Z,16.07
2019-03-31T11:28:03.641Z,16.24
2019-03-31T11:30:32.935Z,16.33
2019-03-31T11:33:02.126Z,16.20
2019-03-31T11:35:31.429Z,16.31
2019-03-31T11:38:00.643Z,16.47
2019-03-31T11:40:29.759Z,16.41
2019-03-31T11:42:58.956Z,16.17
2019-03-31T11:45:28.472Z,16.17
2019-03-31T11:47:57.621Z,16.40
2019-03-31T11:50:26.713Z,16.65
2019-03-31T11:52:55.826Z,16.63
2019-03-31T11:55:25.114Z,16.40
2019-03-31T11:57:54.313Z,16.39
2019-03-31T12:00:23.915Z,16.67
2019-03-31T12:02:53.088Z,16.56
2019-03-31T12:05:22.117Z,16.59
2019-03-31T12:07:51.205Z,16.70
2019-03-31T12:10:20.525Z,16.73
2019-03-31T12:12:52.458Z,17.00
2019-03-31T12:15:21.562Z,16.98
2019-03-31T12:17:50.750Z,16.79
2019-03-31T12:20:20.149Z,16.70
2019-03-31T12:23:06.816Z,16.72
2019-03-31T12:25:53.435Z,16.52
2019-03-31T12:28:40.044Z,16.46
2019-03-31T12:31:09.839Z,16.48
2019-03-31T12:33:38.922Z,16.37
2019-03-31T12:36:08.236Z,16.37
2019-03-31T12:38:37.385Z,16.37
2019-03-31T12:41:06.562Z,16.42
2019-03-31T12:43:35.635Z,16.48
2019-03-31T12:46:04.809Z,16.49
2019-03-31T12:48:34.336Z,16.59
2019-03-31T12:51:03.606Z,16.53
2019-03-31T12:53:32.784Z,16.54
2019-03-31T12:56:01.999Z,16.50
2019-03-31T12:58:31.343Z,16.45
2019-03-31T13:01:00.536Z,16.37
2019-03-31T13:03:29.703Z,16.50
2019-03-31T13:05:58.854Z,16.56
2019-03-31T13:08:28.182Z,16.75
2019-03-31T13:10:57.670Z,16.86
2019-03-31T13:13:26.987Z,16.91
2019-03-31T13:15:56.095Z,16.96
2019-03-31T13:18:28.014Z,16.98
2019-03-31T13:20:56.133Z,16.87
2019-03-31T13:23:25.286Z,16.83
2019-03-31T13:25:54.586Z,16.84
2019-03-31T13:28:23.898Z,16.96
2019-03-31T13:30:53.167Z,17.09
2019-03-31T13:33:22.587Z,17.19
2019-03-31T13:35:53.376Z,17.13
2019-03-31T13:38:22.666Z,17.05
2019-03-31T13:40:52.303Z,17.14
2019-03-31T13:43:21.592Z,17.15
2019-03-31T13:45:50.670Z,17.26
2019-03-31T13:48:20.171Z,17.10
2019-03-31T13:50:49.371Z,16.99
2019-03-31T13:53:21.403Z,16.97
2019-03-31T13:55:50.608Z,16.85
2019-03-31T13:58:20.747Z,16.91
2019-03-31T14:03:18.600Z,16.93
2019-03-31T14:05:47.828Z,17.00
2019-03-31T14:08:25.487Z,17.08
2019-03-31T14:10:48.158Z,17.16
2019-03-31T14:13:17.343Z,17.14
2019-03-31T14:15:46.447Z,17.11
2019-03-31T14:18:15.751Z,17.09
2019-03-31T14:20:44.861Z,17.19
2019-03-31T14:23:14.011Z,17.19
2019-03-31T14:25:43.021Z,17.10
2019-03-31T14:28:12.128Z,17.15
2019-03-31T14:30:41.108Z,17.14
2019-03-31T14:33:10.283Z,17.16
2019-03-31T14:35:39.400Z,17.19
2019-03-31T14:38:08.594Z,17.29
2019-03-31T14:40:37.898Z,17.30
2019-03-31T14:43:07.182Z,17.37
2019-03-31T14:45:37.593Z,17.33
2019-03-31T14:48:06.687Z,17.32
2019-03-31T14:50:37.423Z,17.20
2019-03-31T14:53:07.234Z,17.19
2019-03-31T14:55:36.750Z,17.12
2019-03-31T14:58:08.257Z,17.13
2019-03-31T15:00:37.530Z,17.11
2019-03-31T15:03:06.729Z,17.11
2019-03-31T15:05:35.903Z,17.15
2019-03-31T15:08:05.351Z,17.21
2019-03-31T15:10:34.650Z,17.30
2019-03-31T15:13:04.260Z,17.17
2019-03-31T15:15:33.455Z,17.24
2019-03-31T15:18:02.734Z,17.19
2019-03-31T15:20:32.017Z,17.22
2019-03-31T15:23:01.232Z,17.14
2019-03-31T15:25:30.354Z,17.12
2019-03-31T15:27:59.706Z,17.17
2019-03-31T15:30:28.699Z,17.10
2019-03-31T15:32:57.769Z,17.12
2019-03-31T15:35:26.846Z,17.10
2019-03-31T15:37:55.957Z,17.13
2019-03-31T15:40:25.175Z,17.16
2019-03-31T15:42:54.272Z,17.15
2019-03-31T15:45:23.465Z,17.05
2019-03-31T15:47:52.554Z,16.98
2019-03-31T15:50:21.744Z,17.01
2019-03-31T15:52:50.843Z,16.97
2019-03-31T15:55:20.318Z,16.96
2019-03-31T15:57:49.645Z,17.06
2019-03-31T16:00:18.792Z,17.05
2019-03-31T16:02:48.019Z,16.95
2019-03-31T16:05:17.105Z,16.82
2019-03-31T16:07:46.588Z,16.88
2019-03-31T16:10:15.551Z,16.84
2019-03-31T16:12:44.119Z,16.83
2019-03-31T16:15:14.273Z,16.85
2019-03-31T16:17:42.920Z,16.80
2019-03-31T16:20:11.985Z,16.77
2019-03-31T16:22:40.652Z,16.73
2019-03-31T16:25:34.990Z,16.57
2019-03-31T16:28:03.641Z,16.56
2019-03-31T16:30:33.506Z,16.55
2019-03-31T16:33:02.151Z,16.42
2019-03-31T16:35:30.728Z,16.39
2019-03-31T16:37:59.285Z,16.30
2019-03-31T16:40:27.931Z,16.29
2019-03-31T16:42:56.581Z,16.21
2019-03-31T16:45:25.152Z,16.20
2019-03-31T16:47:53.909Z,16.16
2019-03-31T16:50:22.656Z,16.07
2019-03-31T16:52:52.862Z,16.10
2019-03-31T16:55:21.875Z,16.00
2019-03-31T16:57:50.532Z,15.94
2019-03-31T17:00:19.396Z,15.94
2019-03-31T17:02:48.058Z,16.05
2019-03-31T17:05:22.059Z,15.96
2019-03-31T17:07:47.363Z,16.03
2019-03-31T17:10:15.934Z,15.98
2019-03-31T17:12:44.684Z,15.95
2019-03-31T17:15:13.929Z,15.69
2019-03-31T17:17:42.823Z,15.97
2019-03-31T17:20:11.906Z,15.73
2019-03-31T17:22:41.670Z,15.63
2019-03-31T17:25:10.533Z,15.78
2019-03-31T17:27:39.538Z,15.66
2019-03-31T17:30:08.426Z,15.69
2019-03-31T17:32:37.179Z,15.61
2019-03-31T17:35:06.028Z,15.52
2019-03-31T17:37:34.595Z,15.69
2019-03-31T17:40:06.424Z,15.65
2019-03-31T17:42:34.819Z,15.63
2019-03-31T17:45:04.617Z,15.31
2019-03-31T17:47:33.187Z,15.01
2019-03-31T17:50:01.931Z,15.13
2019-03-31T17:52:30.717Z,15.09
2019-03-31T17:54:59.254Z,15.24
2019-03-31T17:57:27.925Z,15.28
2019-03-31T17:59:56.514Z,15.23
2019-03-31T18:02:25.161Z,15.02
2019-03-31T18:04:53.806Z,15.07
2019-03-31T18:07:22.494Z,15.10
2019-03-31T18:09:52.062Z,15.23
2019-03-31T18:12:20.841Z,15.15
2019-03-31T18:14:49.387Z,15.26
2019-03-31T18:17:17.948Z,15.11
2019-03-31T18:19:46.584Z,14.92
2019-03-31T18:22:16.713Z,15.21
2019-03-31T18:24:45.611Z,15.04
2019-03-31T18:27:14.261Z,15.11
2019-03-31T18:29:42.831Z,15.09
2019-03-31T18:32:11.414Z,14.75
2019-03-31T18:34:40.098Z,14.44
2019-03-31T18:37:08.563Z,14.47
2019-03-31T18:39:37.226Z,14.50
2019-03-31T18:42:06.043Z,14.67
2019-03-31T18:44:34.619Z,14.14
2019-03-31T18:47:03.383Z,14.15
2019-03-31T18:49:31.988Z,14.32
2019-03-31T18:52:00.523Z,14.42
2019-03-31T18:54:54.523Z,14.27
2019-03-31T18:57:41.512Z,14.24
2019-03-31T19:00:33.019Z,14.15
2019-03-31T19:03:15.139Z,14.07
2019-03-31T19:06:12.332Z,13.78
2019-03-31T19:12:24.036Z,13.80
2019-03-31T19:15:09.131Z,13.96
2019-03-31T19:17:57.435Z,13.97
2019-03-31T19:20:44.096Z,14.07
2019-03-31T19:23:22.282Z,14.13
2019-03-31T19:26:10.643Z,13.90
2019-03-31T19:29:04.297Z,13.83
2019-03-31T19:31:52.572Z,13.97
2019-03-31T19:34:37.825Z,13.98
2019-03-31T19:37:16.206Z,14.00
2019-03-31T19:40:16.136Z,13.57
2019-03-31T19:43:01.991Z,13.85
2019-03-31T19:46:05.305Z,13.88
2019-03-31T19:48:41.510Z,13.90
2019-03-31T19:51:28.110Z,13.42
2019-03-31T19:54:08.483Z,13.30
2019-03-31T19:56:44.302Z,13.22
2019-03-31T19:59:35.182Z,13.47
2019-03-31T20:02:42.385Z,13.50
2019-03-31T20:05:33.606Z,13.71
2019-03-31T20:08:19.534Z,13.49
2019-03-31T20:11:25.605Z,13.41
2019-03-31T20:14:01.439Z,13.30
2019-03-31T20:16:47.928Z,13.36
2019-03-31T20:19:42.312Z,13.54
2019-03-31T20:22:24.017Z,13.45
2019-03-31T20:25:07.444Z,13.14
2019-03-31T20:28:02.029Z,12.87
2019-03-31T20:30:46.112Z,12.82
2019-03-31T20:33:32.182Z,12.96
2019-03-31T20:36:26.154Z,12.73
2019-03-31T20:39:09.105Z,12.74
2019-03-31T20:41:43.498Z,12.90
2019-03-31T20:44:12.252Z,12.70
2019-03-31T20:46:40.889Z,12.44
2019-03-31T20:49:09.754Z,12.37
2019-03-31T20:51:38.464Z,12.30
2019-03-31T20:54:07.268Z,12.47
2019-03-31T20:56:36.112Z,12.46
2019-03-31T20:59:04.739Z,12.49
2019-03-31T21:01:33.368Z,12.31
2019-03-31T21:04:01.958Z,12.46
2019-03-31T21:06:30.574Z,12.55
2019-03-31T21:08:59.287Z,12.32
2019-03-31T21:11:27.999Z,12.49
2019-03-31T21:13:57.366Z,12.35
2019-03-31T21:16:26.047Z,12.36
2019-03-31T21:18:54.744Z,12.39
2019-03-31T21:21:23.444Z,11.97
2019-03-31T21:23:52.050Z,12.03
2019-03-31T21:26:20.713Z,12.21
2019-03-31T21:28:49.385Z,12.07
2019-03-31T21:31:18.185Z,11.93
2019-03-31T21:33:46.919Z,11.94
2019-03-31T21:36:15.519Z,11.57
2019-03-31T21:38:44.300Z,11.29
2019-03-31T21:41:14.275Z,11.22
2019-03-31T21:43:43.132Z,10.97
2019-03-31T21:46:11.904Z,10.83
2019-03-31T21:48:40.646Z,10.62
2019-03-31T21:51:09.376Z,10.72
2019-03-31T21:53:37.988Z,10.65
2019-03-31T21:56:06.816Z,10.29
2019-03-31T21:58:35.491Z,10.17
2019-03-31T22:01:04.323Z,10.31
2019-03-31T22:03:32.986Z,10.71
2019-03-31T22:06:01.823Z,10.07
2019-03-31T22:08:30.556Z,9.94
2019-03-31T22:10:59.268Z,9.77
2019-03-31T22:13:27.975Z,10.26
2019-03-31T22:15:56.794Z,10.34
2019-03-31T22:18:25.526Z,10.05
2019-03-31T22:20:54.373Z,9.85
2019-03-31T22:23:23.157Z,10.24
2019-03-31T22:25:51.783Z,9.88
2019-03-31T22:28:20.493Z,9.73
2019-03-31T22:30:49.934Z,9.53
2019-03-31T22:33:18.595Z,9.74
2019-03-31T22:36:05.871Z,9.72
2019-03-31T22:38:34.557Z,10.13
2019-03-31T22:41:03.244Z,9.89
2019-03-31T22:43:31.867Z,9.99
2019-03-31T22:46:00.557Z,9.87
2019-03-31T22:48:29.262Z,9.77
2019-03-31T22:50:57.857Z,9.69
2019-03-31T22:53:26.685Z,9.78
2019-03-31T22:55:55.292Z,9.52
2019-03-31T22:58:24.001Z,9.05
2019-03-31T23:00:52.700Z,9.47
2019-03-31T23:03:21.404Z,9.22
2019-03-31T23:05:50.077Z,9.22
2019-03-31T23:08:18.853Z,9.43
2019-03-31T23:10:47.433Z,8.98
2019-03-31T23:13:16.128Z,9.08
2019-03-31T23:15:44.818Z,9.12
2019-03-31T23:18:13.603Z,8.98
2019-03-31T23:20:42.272Z,8.99
2019-03-31T23:23:10.972Z,8.95
2019-03-31T23:25:39.607Z,8.63
2019-03-31T23:28:08.250Z,8.56
2019-03-31T23:30:36.928Z,8.64
2019-03-31T23:33:05.617Z,8.69
2019-03-31T23:35:34.384Z,8.92
2019-03-31T23:38:03.045Z,8.94
2019-03-31T23:40:31.781Z,8.81
2019-03-31T23:43:00.361Z,8.48
2019-03-31T23:45:32.269Z,8.22
2019-03-31T23:47:59.620Z,7.98
2019-03-31T23:50:28.096Z,8.01
2019-03-31T23:52:56.791Z,8.08
2019-03-31T23:55:25.353Z,8.25
2019-03-31T23:57:53.922Z,8.35
